| time (UTC) | temp F | wind direction | speed MPH | gust MPH | rain 1hr in | rain 24hr in | rain mn in | humidity % | barometer mb |
| 20260508021911 | 51 | 343 | 2.0 | 3.0 | 0.00 | 0.00 | 0.00 | 81 | 1015.1 |
| 20260508021411 | 51 | 348 | 2.0 | 2.0 | 0.00 | 0.00 | 0.00 | 80 | 1015.0 |
| 20260508020913 | 52 | 345 | 2.0 | 2.0 | 0.00 | 0.00 | 0.00 | 79 | 1015.0 |
| 20260508020412 | 52 | 0 | 0.0 | 0.0 | 0.00 | 0.00 | 0.00 | 80 | 1015.0 |
| 20260508015911 | 52 | 0 | 0.0 | 2.0 | 0.00 | 0.00 | 0.00 | 80 | 1014.9 |
| 20260508015412 | 52 | 354 | 0.0 | 2.0 | 0.00 | 0.00 | 0.00 | 80 | 1014.8 |
| 20260508014911 | 53 | 352 | 2.0 | 2.0 | 0.00 | 0.00 | 0.00 | 79 | 1014.7 |
| 20260508014411 | 53 | 342 | 1.0 | 2.0 | 0.00 | 0.00 | 0.00 | 79 | 1014.7 |
| 20260508013911 | 53 | 352 | 2.0 | 2.0 | 0.00 | 0.00 | 0.00 | 78 | 1014.7 |
| 20260508013412 | 54 | 350 | 2.0 | 2.0 | 0.00 | 0.00 | 0.00 | 77 | 1014.6 |
| 20260508012912 | 55 | 350 | 1.0 | 2.0 | 0.00 | 0.00 | 0.00 | 76 | 1014.5 |
| 20260508012412 | 55 | 337 | 1.0 | 2.0 | 0.00 | 0.00 | 0.00 | 77 | 1014.5 |
| 20260508011911 | 55 | 350 | 2.0 | 2.0 | 0.00 | 0.00 | 0.00 | 75 | 1014.5 |
| 20260508011411 | 56 | 344 | 0.0 | 2.0 | 0.00 | 0.00 | 0.00 | 75 | 1014.5 |
| 20260508010911 | 56 | 353 | 1.0 | 2.0 | 0.00 | 0.00 | 0.00 | 74 | 1014.5 |
| 20260508010412 | 57 | 348 | 2.0 | 2.0 | 0.00 | 0.00 | 0.00 | 73 | 1014.5 |
| 20260508005911 | 58 | 348 | 2.0 | 2.0 | 0.00 | 0.00 | 0.00 | 72 | 1014.5 |
| 20260508005412 | 59 | 353 | 2.0 | 2.0 | 0.00 | 0.00 | 0.00 | 70 | 1014.5 |
| 20260508004911 | 60 | 348 | 1.0 | 3.0 | 0.00 | 0.00 | 0.00 | 69 | 1014.5 |
| 20260508004412 | 62 | 349 | 1.0 | 2.0 | 0.00 | 0.00 | 0.00 | 66 | 1014.5 |
| 20260508003911 | 63 | 245 | 0.0 | 2.0 | 0.00 | 0.00 | 0.00 | 63 | 1014.5 |
| 20260508003412 | 64 | 344 | 1.0 | 2.0 | 0.00 | 0.00 | 0.00 | 60 | 1014.5 |
| 20260508002911 | 65 | 16 | 0.0 | 2.0 | 0.00 | 0.00 | 0.00 | 57 | 1014.5 |
| 20260508002412 | 67 | 352 | 2.0 | 4.0 | 0.00 | 0.00 | 0.00 | 54 | 1014.3 |
| 20260508001912 | 68 | 331 | 0.0 | 2.0 | 0.00 | 0.00 | 0.00 | 52 | 1014.5 |
| 20260508001411 | 68 | 0 | 0.0 | 7.0 | 0.00 | 0.00 | 0.00 | 47 | 1014.5 |
| 20260508000912 | 68 | 31 | 2.0 | 7.0 | 0.00 | 0.00 | 0.00 | 45 | 1014.3 |
| 20260508000412 | 68 | 273 | 0.0 | 4.0 | 0.00 | 0.00 | 0.00 | 45 | 1014.3 |
| 20260507235911 | 68 | 326 | 1.0 | 4.0 | 0.00 | 0.00 | 0.00 | 45 | 1014.3 |
| 20260507235411 | 68 | 317 | 2.0 | 5.0 | 0.00 | 0.00 | 0.00 | 45 | 1014.3 |
| 20260507234911 | 68 | 330 | 1.0 | 9.0 | 0.00 | 0.00 | 0.00 | 46 | 1014.3 |
| 20260507234412 | 69 | 340 | 4.0 | 9.0 | 0.00 | 0.00 | 0.00 | 45 | 1014.3 |
| 20260507233911 | 69 | 319 | 3.0 | 4.0 | 0.00 | 0.00 | 0.00 | 45 | 1014.3 |
| 20260507224415 | 70 | 253 | 4.0 | 6.0 | 0.00 | 0.00 | 0.00 | 42 | 1014.7 |
| 20260507210912 | 71 | 213 | 2.0 | 5.0 | 0.00 | 0.00 | 0.00 | 39 | 1015.2 |
| 20260507210412 | 71 | 342 | 2.0 | 5.0 | 0.00 | 0.00 | 0.00 | 38 | 1015.2 |
| 20260507204913 | 72 | 268 | 2.0 | 4.0 | 0.00 | 0.00 | 0.00 | 39 | 1015.9 |
| 20260507203913 | 71 | 30 | 2.0 | 5.0 | 0.00 | 0.00 | 0.00 | 37 | 1015.6 |
| 20260507202911 | 71 | 330 | 3.0 | 9.0 | 0.00 | 0.00 | 0.00 | 39 | 1015.9 |
| 20260507202411 | 71 | 27 | 2.0 | 8.0 | 0.00 | 0.00 | 0.00 | 38 | 1015.8 |
| 20260507201913 | 71 | 321 | 4.0 | 8.0 | 0.00 | 0.00 | 0.00 | 37 | 1015.8 |
| 20260507201412 | 70 | 211 | 1.0 | 5.0 | 0.00 | 0.00 | 0.00 | 38 | 1015.8 |
| 20260507195912 | 71 | 343 | 3.0 | 11.0 | 0.00 | 0.00 | 0.00 | 38 | 1016.2 |
| 20260507195412 | 71 | 345 | 5.0 | 8.0 | 0.00 | 0.00 | 0.00 | 38 | 1016.0 |
| 20260507192414 | 70 | 322 | 5.0 | 12.0 | 0.00 | 0.00 | 0.00 | 37 | 1016.3 |
| 20260507191914 | 70 | 125 | 2.0 | 7.0 | 0.00 | 0.00 | 0.00 | 35 | 1016.3 |
| 20260507191411 | 70 | 15 | 4.0 | 10.0 | 0.00 | 0.00 | 0.00 | 36 | 1016.7 |
| 20260507190911 | 71 | 340 | 7.0 | 9.0 | 0.00 | 0.00 | 0.00 | 37 | 1016.4 |
| 20260507190412 | 70 | 346 | 4.0 | 7.0 | 0.00 | 0.00 | 0.00 | 36 | 1016.5 |
| 20260507185911 | 71 | 334 | 3.0 | 5.0 | 0.00 | 0.00 | 0.00 | 36 | 1016.6 |
| 20260507185412 | 69 | 232 | 2.0 | 7.0 | 0.00 | 0.00 | 0.00 | 38 | 1016.5 |
| 20260507184911 | 67 | 148 | 0.0 | 9.0 | 0.00 | 0.00 | 0.00 | 39 | 1016.5 |
| 20260507184412 | 67 | 193 | 4.0 | 10.0 | 0.00 | 0.00 | 0.00 | 40 | 1016.7 |
| 20260507183912 | 68 | 144 | 2.0 | 6.0 | 0.00 | 0.00 | 0.00 | 38 | 1016.5 |
| 20260507182413 | 68 | 306 | 1.0 | 8.0 | 0.00 | 0.00 | 0.00 | 37 | 1017.1 |
| 20260507181914 | 68 | 328 | 5.0 | 8.0 | 0.00 | 0.00 | 0.00 | 38 | 1017.0 |
| 20260507180913 | 68 | 351 | 2.0 | 4.0 | 0.00 | 0.00 | 0.00 | 38 | 1016.9 |
| 20260507174912 | 65 | 152 | 4.0 | 9.0 | 0.00 | 0.00 | 0.00 | 42 | 1017.5 |
| 20260507171913 | 65 | 201 | 5.0 | 8.0 | 0.00 | 0.00 | 0.00 | 41 | 1018.1 |
| 20260507170913 | 65 | 152 | 6.0 | 10.0 | 0.00 | 0.00 | 0.00 | 41 | 1018.0 |
| 20260507164413 | 67 | 133 | 2.0 | 7.0 | 0.00 | 0.00 | 0.00 | 39 | 1018.4 |
| 20260507163914 | 65 | 41 | 1.0 | 7.0 | 0.00 | 0.00 | 0.00 | 40 | 1018.5 |
| 20260507163414 | 64 | 248 | 3.0 | 7.0 | 0.00 | 0.00 | 0.00 | 40 | 1018.6 |
| 20260507162913 | 62 | 220 | 1.0 | 7.0 | 0.00 | 0.00 | 0.00 | 45 | 1018.7 |
| 20260507161914 | 63 | 141 | 4.0 | 9.0 | 0.00 | 0.00 | 0.00 | 43 | 1018.7 |
| 20260507161413 | 63 | 313 | 2.0 | 7.0 | 0.00 | 0.00 | 0.00 | 42 | 1018.8 |
| 20260507160914 | 63 | 150 | 2.0 | 9.0 | 0.00 | 0.00 | 0.00 | 42 | 1018.9 |
| 20260507160413 | 63 | 156 | 3.0 | 8.0 | 0.00 | 0.00 | 0.00 | 46 | 1019.0 |
| 20260507155912 | 64 | 221 | 3.0 | 6.0 | 0.00 | 0.00 | 0.00 | 42 | 1019.0 |
| 20260507155414 | 64 | 144 | 4.0 | 6.0 | 0.00 | 0.00 | 0.00 | 43 | 1019.0 |
| 20260507154916 | 62 | 143 | 1.0 | 5.0 | 0.00 | 0.00 | 0.00 | 47 | 1019.0 |
| 20260507154413 | 62 | 155 | 4.0 | 9.0 | 0.00 | 0.00 | 0.00 | 48 | 1019.0 |
| 20260507153913 | 61 | 163 | 2.0 | 8.0 | 0.00 | 0.00 | 0.00 | 46 | 1019.0 |
| 20260507153414 | 61 | 229 | 3.0 | 9.0 | 0.00 | 0.00 | 0.00 | 51 | 1019.0 |
| 20260507152914 | 61 | 179 | 4.0 | 9.0 | 0.00 | 0.00 | 0.00 | 47 | 1019.0 |
| 20260507152414 | 60 | 250 | 2.0 | 8.0 | 0.00 | 0.00 | 0.00 | 50 | 1019.0 |
| 20260507151914 | 59 | 150 | 7.0 | 9.0 | 0.00 | 0.00 | 0.00 | 51 | 1019.1 |
| 20260507150914 | 59 | 152 | 6.0 | 9.0 | 0.00 | 0.00 | 0.00 | 48 | 1019.0 |
| 20260507150413 | 59 | 176 | 5.0 | 9.0 | 0.00 | 0.00 | 0.00 | 51 | 1019.1 |
| 20260507145912 | 58 | 127 | 1.0 | 8.0 | 0.00 | 0.00 | 0.00 | 52 | 1019.1 |
| 20260507145414 | 58 | 157 | 4.0 | 8.0 | 0.00 | 0.00 | 0.00 | 49 | 1019.1 |
| 20260507144913 | 58 | 173 | 3.0 | 7.0 | 0.00 | 0.00 | 0.00 | 51 | 1019.2 |
| 20260507144414 | 58 | 297 | 2.0 | 7.0 | 0.00 | 0.00 | 0.00 | 49 | 1019.2 |
| 20260507143913 | 57 | 158 | 3.0 | 8.0 | 0.00 | 0.00 | 0.00 | 52 | 1019.3 |
| 20260507143413 | 57 | 172 | 4.0 | 8.0 | 0.00 | 0.00 | 0.00 | 54 | 1019.2 |
| 20260507142915 | 57 | 146 | 4.0 | 8.0 | 0.00 | 0.00 | 0.00 | 56 | 1019.2 |
| 20260507142414 | 56 | 174 | 4.0 | 7.0 | 0.00 | 0.00 | 0.00 | 58 | 1019.2 |
| 20260507141914 | 56 | 153 | 5.0 | 7.0 | 0.00 | 0.00 | 0.00 | 59 | 1019.1 |
| 20260507141412 | 57 | 304 | 2.0 | 5.0 | 0.00 | 0.00 | 0.00 | 60 | 1019.1 |
| 20260507140914 | 56 | 201 | 3.0 | 5.0 | 0.00 | 0.00 | 0.00 | 61 | 1019.2 |
| 20260507140413 | 56 | 199 | 2.0 | 4.0 | 0.00 | 0.00 | 0.00 | 61 | 1019.3 |
| 20260507135911 | 56 | 24 | 1.0 | 4.0 | 0.00 | 0.00 | 0.00 | 63 | 1019.3 |
| 20260507135414 | 55 | 310 | 1.0 | 4.0 | 0.00 | 0.00 | 0.00 | 63 | 1019.3 |
| 20260507134913 | 53 | 351 | 2.0 | 4.0 | 0.00 | 0.00 | 0.00 | 66 | 1019.3 |
| 20260507134415 | 53 | 196 | 2.0 | 4.0 | 0.00 | 0.00 | 0.00 | 67 | 1019.3 |
| 20260507133913 | 53 | 228 | 2.0 | 4.0 | 0.00 | 0.00 | 0.00 | 67 | 1019.3 |
| 20260507133413 | 52 | 155 | 2.0 | 4.0 | 0.00 | 0.00 | 0.00 | 67 | 1019.3 |
| 20260507132913 | 52 | 207 | 2.0 | 5.0 | 0.00 | 0.00 | 0.00 | 69 | 1019.3 |
| 20260507132414 | 52 | 167 | 2.0 | 4.0 | 0.00 | 0.00 | 0.00 | 69 | 1019.3 |
| 20260507131913 | 52 | 214 | 2.0 | 4.0 | 0.00 | 0.00 | 0.00 | 70 | 1019.2 |
| 20260507131414 | 51 | 103 | 2.0 | 4.0 | 0.00 | 0.00 | 0.00 | 71 | 1019.1 |
| 20260507130914 | 51 | 164 | 2.0 | 5.0 | 0.00 | 0.00 | 0.00 | 72 | 1019.0 |
| 20260507130414 | 51 | 145 | 2.0 | 3.0 | 0.00 | 0.00 | 0.00 | 72 | 1019.1 |
| 20260507125914 | 50 | 137 | 1.0 | 4.0 | 0.00 | 0.00 | 0.00 | 73 | 1019.1 |
| 20260507125414 | 50 | 133 | 1.0 | 3.0 | 0.00 | 0.00 | 0.00 | 74 | 1019.1 |
| 20260507124915 | 50 | 136 | 1.0 | 2.0 | 0.00 | 0.00 | 0.00 | 74 | 1019.1 |
| 20260507124413 | 49 | 0 | 0.0 | 2.0 | 0.00 | 0.00 | 0.00 | 74 | 1019.0 |
| 20260507123914 | 48 | 101 | 0.0 | 2.0 | 0.00 | 0.00 | 0.00 | 78 | 1019.0 |
| 20260507123413 | 47 | 0 | 0.0 | 3.0 | 0.00 | 0.00 | 0.00 | 82 | 1019.1 |
| 20260507122913 | 47 | 147 | 2.0 | 3.0 | 0.00 | 0.00 | 0.00 | 81 | 1019.0 |
| 20260507122414 | 46 | 0 | 0.0 | 2.0 | 0.00 | 0.00 | 0.00 | 81 | 1019.0 |
| 20260507121911 | 46 | 0 | 0.0 | 2.0 | 0.00 | 0.00 | 0.00 | 83 | 1019.0 |
| 20260507121412 | 45 | 140 | 0.0 | 2.0 | 0.00 | 0.00 | 0.00 | 85 | 1019.0 |
| 20260507120911 | 44 | 0 | 0.0 | 1.0 | 0.00 | 0.00 | 0.00 | 86 | 1019.0 |
| 20260507120414 | 43 | 118 | 0.0 | 2.0 | 0.00 | 0.00 | 0.00 | 89 | 1018.9 |
| 20260507115912 | 42 | 147 | 1.0 | 2.0 | 0.00 | 0.00 | 0.00 | 89 | 1018.8 |
| 20260507115413 | 41 | 0 | 0.0 | 0.0 | 0.00 | 0.00 | 0.00 | 90 | 1019.0 |
| 20260507114913 | 41 | 0 | 0.0 | 1.0 | 0.00 | 0.00 | 0.00 | 92 | 1019.0 |
| 20260507114412 | 40 | 345 | 0.0 | 2.0 | 0.00 | 0.00 | 0.00 | 94 | 1018.9 |
| 20260507113912 | 40 | 0 | 0.0 | 0.0 | 0.00 | 0.00 | 0.00 | 94 | 1019.0 |
| 20260507113414 | 40 | 0 | 0.0 | 2.0 | 0.00 | 0.00 | 0.00 | 94 | 1018.9 |
| 20260507112914 | 40 | 339 | 1.0 | 2.0 | 0.00 | 0.00 | 0.00 | 94 | 1018.8 |
| 20260507112412 | 40 | 334 | 1.0 | 2.0 | 0.00 | 0.00 | 0.00 | 94 | 1018.7 |
| 20260507111913 | 40 | 336 | 0.0 | 2.0 | 0.00 | 0.00 | 0.00 | 93 | 1018.7 |
| 20260507111412 | 40 | 355 | 1.0 | 2.0 | 0.00 | 0.00 | 0.00 | 94 | 1018.7 |
| 20260507110913 | 40 | 0 | 0.0 | 0.0 | 0.00 | 0.00 | 0.00 | 94 | 1018.6 |
| 20260507110412 | 40 | 0 | 0.0 | 0.0 | 0.00 | 0.00 | 0.00 | 94 | 1018.5 |
| 20260507105911 | 40 | 0 | 0.0 | 2.0 | 0.00 | 0.00 | 0.00 | 94 | 1018.4 |
| 20260507105413 | 40 | 19 | 0.0 | 2.0 | 0.00 | 0.00 | 0.00 | 95 | 1018.3 |
| 20260507104912 | 40 | 0 | 0.0 | 2.0 | 0.00 | 0.00 | 0.00 | 95 | 1018.3 |
| 20260507104413 | 40 | 148 | 1.0 | 2.0 | 0.00 | 0.00 | 0.00 | 94 | 1018.2 |
| 20260507103911 | 40 | 50 | 0.0 | 2.0 | 0.00 | 0.00 | 0.00 | 94 | 1018.4 |
| 20260507103413 | 39 | 345 | 0.0 | 2.0 | 0.00 | 0.00 | 0.00 | 95 | 1018.4 |
| 20260507102913 | 39 | 340 | 1.0 | 2.0 | 0.00 | 0.00 | 0.00 | 95 | 1018.2 |
| 20260507102413 | 39 | 0 | 0.0 | 1.0 | 0.00 | 0.00 | 0.00 | 95 | 1018.2 |
| 20260507101911 | 39 | 0 | 0.0 | 0.0 | 0.00 | 0.00 | 0.00 | 95 | 1018.3 |
| 20260507101412 | 39 | 0 | 0.0 | 0.0 | 0.00 | 0.00 | 0.00 | 95 | 1018.2 |
| 20260507100912 | 39 | 0 | 0.0 | 1.0 | 0.00 | 0.00 | 0.00 | 95 | 1018.3 |
| 20260507100412 | 38 | 0 | 0.0 | 2.0 | 0.00 | 0.00 | 0.00 | 95 | 1018.5 |
| 20260507095913 | 38 | 0 | 0.0 | 2.0 | 0.00 | 0.00 | 0.00 | 94 | 1018.4 |
| 20260507095412 | 38 | 0 | 0.0 | 2.0 | 0.00 | 0.00 | 0.00 | 94 | 1018.3 |
| 20260507094913 | 38 | 0 | 0.0 | 2.0 | 0.00 | 0.00 | 0.00 | 94 | 1018.5 |
| 20260507094412 | 38 | 0 | 0.0 | 0.0 | 0.00 | 0.00 | 0.00 | 94 | 1018.4 |
| 20260507093912 | 38 | 0 | 0.0 | 0.0 | 0.00 | 0.00 | 0.00 | 93 | 1018.5 |
| 20260507093411 | 39 | 0 | 0.0 | 0.0 | 0.00 | 0.00 | 0.00 | 92 | 1018.7 |
| 20260507092913 | 39 | 0 | 0.0 | 2.0 | 0.00 | 0.00 | 0.00 | 90 | 1018.6 |
| 20260507092414 | 39 | 338 | 1.0 | 2.0 | 0.00 | 0.00 | 0.00 | 91 | 1018.6 |
| 20260507091914 | 39 | 0 | 0.0 | 0.0 | 0.00 | 0.00 | 0.00 | 91 | 1018.6 |
| 20260507091412 | 39 | 0 | 0.0 | 1.0 | 0.00 | 0.00 | 0.00 | 90 | 1018.6 |
| 20260507090913 | 40 | 0 | 0.0 | 2.0 | 0.00 | 0.00 | 0.00 | 89 | 1018.7 |
| 20260507090413 | 40 | 346 | 1.0 | 2.0 | 0.00 | 0.00 | 0.00 | 90 | 1018.5 |
| 20260507085913 | 40 | 354 | 1.0 | 2.0 | 0.00 | 0.00 | 0.00 | 90 | 1018.4 |
| 20260507085413 | 40 | 354 | 2.0 | 2.0 | 0.00 | 0.00 | 0.00 | 89 | 1018.3 |
| 20260507084914 | 40 | 357 | 2.0 | 3.0 | 0.00 | 0.00 | 0.00 | 89 | 1018.3 |
| 20260507084412 | 40 | 357 | 0.0 | 1.0 | 0.00 | 0.00 | 0.00 | 89 | 1018.3 |
| 20260507083914 | 40 | 351 | 0.0 | 2.0 | 0.00 | 0.00 | 0.00 | 89 | 1018.3 |
| 20260507083413 | 40 | 329 | 0.0 | 2.0 | 0.00 | 0.00 | 0.00 | 90 | 1018.1 |
| 20260507082912 | 40 | 352 | 2.0 | 3.0 | 0.00 | 0.00 | 0.00 | 89 | 1018.2 |
| 20260507082413 | 40 | 356 | 2.0 | 3.0 | 0.00 | 0.00 | 0.00 | 89 | 1018.1 |
| 20260507081913 | 40 | 357 | 2.0 | 2.0 | 0.00 | 0.00 | 0.00 | 89 | 1018.0 |
| 20260507081414 | 40 | 351 | 2.0 | 2.0 | 0.00 | 0.00 | 0.00 | 88 | 1018.0 |
| 20260507080915 | 41 | 356 | 1.0 | 2.0 | 0.00 | 0.00 | 0.00 | 87 | 1018.1 |
| 20260507080413 | 41 | 0 | 1.0 | 2.0 | 0.00 | 0.00 | 0.00 | 86 | 1018.1 |
| 20260507075914 | 41 | 356 | 1.0 | 2.0 | 0.00 | 0.00 | 0.00 | 86 | 1018.2 |
| 20260507075412 | 41 | 345 | 1.0 | 3.0 | 0.00 | 0.00 | 0.00 | 86 | 1018.2 |
| 20260507074913 | 41 | 2 | 1.0 | 3.0 | 0.00 | 0.00 | 0.00 | 85 | 1018.2 |
| 20260507074411 | 42 | 355 | 2.0 | 2.0 | 0.00 | 0.00 | 0.00 | 85 | 1018.2 |
| 20260507073913 | 42 | 340 | 0.0 | 1.0 | 0.00 | 0.00 | 0.00 | 83 | 1018.4 |
| 20260507073413 | 42 | 0 | 0.0 | 2.0 | 0.00 | 0.00 | 0.00 | 82 | 1018.5 |
| 20260507072911 | 43 | 355 | 0.0 | 3.0 | 0.00 | 0.00 | 0.00 | 81 | 1018.6 |
| 20260507072411 | 43 | 9 | 1.0 | 3.0 | 0.00 | 0.00 | 0.00 | 82 | 1018.6 |
| 20260507071914 | 44 | 29 | 1.0 | 3.0 | 0.00 | 0.00 | 0.00 | 80 | 1018.7 |
| 20260507071412 | 44 | 340 | 1.0 | 3.0 | 0.00 | 0.00 | 0.00 | 77 | 1018.7 |
| 20260507070911 | 45 | 344 | 2.0 | 5.0 | 0.00 | 0.00 | 0.00 | 76 | 1018.7 |
| 20260507070413 | 45 | 348 | 2.0 | 4.0 | 0.00 | 0.00 | 0.00 | 73 | 1018.7 |
| 20260507065914 | 45 | 354 | 2.0 | 3.0 | 0.00 | 0.00 | 0.00 | 72 | 1018.7 |
| 20260507065412 | 45 | 2 | 1.0 | 3.0 | 0.00 | 0.00 | 0.00 | 73 | 1018.6 |
| 20260507064913 | 45 | 5 | 2.0 | 4.0 | 0.00 | 0.00 | 0.00 | 75 | 1018.6 |
| 20260507064414 | 46 | 2 | 2.0 | 3.0 | 0.00 | 0.00 | 0.00 | 75 | 1018.5 |
| 20260507063912 | 46 | 355 | 1.0 | 4.0 | 0.00 | 0.00 | 0.00 | 74 | 1018.6 |
| 20260507063414 | 47 | 339 | 2.0 | 4.0 | 0.00 | 0.00 | 0.00 | 70 | 1018.7 |
| 20260507062914 | 47 | 357 | 3.0 | 4.0 | 0.00 | 0.00 | 0.00 | 69 | 1018.6 |
| 20260507062413 | 47 | 349 | 2.0 | 3.0 | 0.00 | 0.00 | 0.00 | 69 | 1018.6 |
| 20260507061911 | 47 | 339 | 2.0 | 4.0 | 0.00 | 0.00 | 0.00 | 69 | 1018.6 |
| 20260507061411 | 47 | 22 | 1.0 | 4.0 | 0.00 | 0.00 | 0.00 | 69 | 1018.7 |
| 20260507060912 | 47 | 342 | 2.0 | 4.0 | 0.00 | 0.00 | 0.00 | 68 | 1018.7 |
| 20260507060411 | 47 | 4 | 2.0 | 4.0 | 0.00 | 0.00 | 0.00 | 69 | 1018.6 |
| 20260507055911 | 47 | 344 | 1.0 | 3.0 | 0.00 | 0.00 | 0.00 | 68 | 1018.7 |
| 20260507055411 | 47 | 353 | 2.0 | 4.0 | 0.00 | 0.00 | 0.00 | 69 | 1018.6 |
| 20260507054911 | 47 | 336 | 2.0 | 5.0 | 0.00 | 0.00 | 0.00 | 69 | 1018.6 |
| 20260507054411 | 47 | 342 | 3.0 | 4.0 | 0.00 | 0.00 | 0.00 | 70 | 1018.5 |
| 20260507053911 | 47 | 17 | 2.0 | 4.0 | 0.00 | 0.00 | 0.00 | 69 | 1018.5 |
| 20260507053411 | 47 | 23 | 2.0 | 4.0 | 0.00 | 0.00 | 0.00 | 69 | 1018.4 |
| 20260507052912 | 47 | 354 | 1.0 | 4.0 | 0.00 | 0.00 | 0.00 | 70 | 1018.5 |
| 20260507052413 | 47 | 0 | 0.0 | 3.0 | 0.00 | 0.00 | 0.00 | 70 | 1018.6 |
| 20260507051911 | 47 | 354 | 2.0 | 4.0 | 0.00 | 0.00 | 0.00 | 69 | 1018.6 |
| 20260507051412 | 48 | 15 | 2.0 | 4.0 | 0.00 | 0.00 | 0.00 | 69 | 1018.4 |
| 20260507050912 | 48 | 345 | 1.0 | 4.0 | 0.00 | 0.00 | 0.00 | 70 | 1018.4 |
| 20260507050414 | 48 | 1 | 2.0 | 4.0 | 0.00 | 0.00 | 0.00 | 69 | 1018.4 |
| 20260507045912 | 48 | 6 | 1.0 | 4.0 | 0.00 | 0.00 | 0.00 | 69 | 1018.3 |
| 20260507045411 | 48 | 346 | 2.0 | 4.0 | 0.00 | 0.00 | 0.00 | 68 | 1018.2 |
| 20260507044913 | 48 | 14 | 1.0 | 5.0 | 0.00 | 0.00 | 0.00 | 68 | 1018.1 |
| 20260507044412 | 48 | 359 | 3.0 | 5.0 | 0.00 | 0.00 | 0.00 | 68 | 1018.2 |
| 20260507043912 | 49 | 358 | 1.0 | 4.0 | 0.00 | 0.00 | 0.00 | 67 | 1018.3 |
| 20260507043411 | 49 | 349 | 2.0 | 4.0 | 0.00 | 0.00 | 0.00 | 67 | 1018.2 |
| 20260507042911 | 49 | 356 | 2.0 | 4.0 | 0.00 | 0.00 | 0.00 | 68 | 1018.1 |
| 20260507042412 | 49 | 7 | 2.0 | 4.0 | 0.00 | 0.00 | 0.00 | 69 | 1018.1 |
| 20260507041912 | 49 | 349 | 0.0 | 5.0 | 0.00 | 0.00 | 0.00 | 68 | 1018.1 |
| 20260507041412 | 49 | 355 | 2.0 | 4.0 | 0.00 | 0.00 | 0.00 | 68 | 1018.0 |
| 20260507040913 | 49 | 348 | 2.0 | 3.0 | 0.00 | 0.00 | 0.00 | 68 | 1018.0 |
| 20260507040411 | 49 | 341 | 2.0 | 4.0 | 0.00 | 0.00 | 0.00 | 68 | 1017.9 |
| 20260507035914 | 49 | 9 | 2.0 | 5.0 | 0.00 | 0.00 | 0.00 | 67 | 1017.9 |
| 20260507035411 | 49 | 22 | 2.0 | 4.0 | 0.00 | 0.00 | 0.00 | 67 | 1018.0 |
| 20260507034912 | 49 | 320 | 0.0 | 4.0 | 0.00 | 0.00 | 0.00 | 67 | 1018.1 |
| 20260507034411 | 49 | 2 | 2.0 | 4.0 | 0.00 | 0.00 | 0.00 | 66 | 1018.1 |
| 20260507033911 | 50 | 3 | 1.0 | 4.0 | 0.00 | 0.00 | 0.00 | 66 | 1018.0 |
| 20260507033411 | 50 | 351 | 2.0 | 4.0 | 0.00 | 0.00 | 0.00 | 66 | 1018.0 |
| 20260507032912 | 50 | 2 | 2.0 | 4.0 | 0.00 | 0.00 | 0.00 | 66 | 1018.0 |
| 20260507032412 | 50 | 352 | 2.0 | 3.0 | 0.00 | 0.00 | 0.00 | 66 | 1017.9 |
| 20260507031911 | 50 | 1 | 2.0 | 5.0 | 0.00 | 0.00 | 0.00 | 66 | 1017.9 |
| 20260507031412 | 50 | 342 | 2.0 | 4.0 | 0.00 | 0.00 | 0.00 | 66 | 1017.8 |
| 20260507030912 | 50 | 346 | 1.0 | 4.0 | 0.00 | 0.00 | 0.00 | 66 | 1017.7 |
| 20260507030414 | 51 | 359 | 1.0 | 4.0 | 0.00 | 0.00 | 0.00 | 65 | 1017.7 |
| 20260507025913 | 51 | 14 | 1.0 | 4.0 | 0.00 | 0.00 | 0.00 | 65 | 1017.7 |
| 20260507025412 | 51 | 359 | 2.0 | 5.0 | 0.00 | 0.00 | 0.00 | 64 | 1017.6 |
| 20260507024911 | 51 | 357 | 2.0 | 4.0 | 0.00 | 0.00 | 0.00 | 64 | 1017.5 |
| 20260507024412 | 51 | 341 | 1.0 | 4.0 | 0.00 | 0.00 | 0.00 | 63 | 1017.5 |
| 20260507023912 | 51 | 351 | 2.0 | 4.0 | 0.00 | 0.00 | 0.00 | 64 | 1017.5 |
| 20260507023412 | 51 | 1 | 2.0 | 4.0 | 0.00 | 0.00 | 0.00 | 64 | 1017.3 |
| 20260507022913 | 51 | 359 | 2.0 | 4.0 | 0.00 | 0.00 | 0.00 | 63 | 1017.3 |
| 20260507022412 | 51 | 348 | 2.0 | 4.0 | 0.00 | 0.00 | 0.00 | 64 | 1017.3 |